VTBU/UTP METAR and TAF weather

Enter ICAO airport designator
Station Type Date Time Source
VTBU METAR 2019/09/21 04:30 UTC NOAA

VTBU 210430Z 05002KT 9999 -SHRA FEW018CB SCT035 BKN100 28/23 Q1009 TEMPO FM0440 TL0500 5000 SHRA


Station Type Date Time Source
VTBU Decoded METAR 2019/09/21 04:30 UTC NOAA

Rayong, Thailand (VTBU) 12-38N 101-21E 5M
Sep 21, 2019 - 12:30 AM EDT / 2019.09.21 0430 UTC
Wind: from the NE (050 degrees) at 2 MPH (2 KT):0
Visibility: greater than 7 mile(s):0
Sky conditions: mostly cloudy
Weather: light rain showers; Cumulonimbus clouds observed
Temperature: 82 F (28 C)
Dew Point: 73 F (23 C)
Relative Humidity: 74%
Pressure (altimeter): 29.80 in. Hg (1009 hPa)
ob: VTBU 210430Z 05002KT 9999 -SHRA FEW018CB SCT035 BKN100 28/23 Q1009 TEMPO FM0440 TL0500 5000 SHRA
cycle: 4

Station Type Date Time Source
VTBU TAF 2019/09/20 18:39 UTC NOAA

TAF VTBU 201700Z 2018/2118 23004KT 9999 FEW020 SCT100
TEMPO 2019/2024 VRB12KT 5000 SHRA FEW018CB SCT035 BKN100
BECMG 2100/2102 23008KT

Example: see airport list